Time;durP1;ratioP1;P1;durP2;ratioP2;P2;SDS_P1;SDS_P2;PMS_P1;PMS_P2;Temp;Humidity;BMP_temperature;BMP_pressure;BME280_temperature;BME280_humidity;BME280_pressure;Samples;Min_cycle;Max_cycle;Signal;HPM_P1;HPM_P2
2022/08/14 00:00:14;;;;;;;10.63;6.43;;;;;;;13.29;98.30;95286.38;5047365;28;20044;-74
2022/08/14 00:03:00;;;;;;;10.60;5.47;;;;;;;13.32;96.29;95283.16;5049799;28;20521;-75
2022/08/14 00:05:25;;;;;;;9.48;6.10;;;;;;;13.25;96.79;95285.41;5051601;28;20041;-75
2022/08/14 00:07:51;;;;;;;11.80;6.43;;;;;;;13.20;97.64;95272.25;5047693;28;20045;-74
2022/08/14 00:10:19;;;;;;;12.82;6.50;;;;;;;13.08;98.13;95264.03;5051638;28;20041;-75
2022/08/14 00:12:52;;;;;;;9.75;6.13;;;;;;;13.11;97.90;95274.03;5046625;28;20040;-74
2022/08/14 00:15:30;;;;;;;11.05;6.53;;;;;;;13.07;98.31;95271.16;5051516;28;20045;-74
2022/08/14 00:17:57;;;;;;;10.90;6.45;;;;;;;13.02;98.10;95275.78;5051007;28;20491;-75
2022/08/14 00:20:27;;;;;;;12.13;5.97;;;;;;;12.97;98.09;95269.50;5047318;28;20041;-75
2022/08/14 00:22:53;;;;;;;9.90;6.32;;;;;;;12.96;98.61;95272.44;5049377;28;20128;-75
2022/08/14 00:25:18;;;;;;;14.02;6.45;;;;;;;12.83;98.82;95268.69;5051291;28;20045;-75
2022/08/14 00:27:44;;;;;;;11.15;6.88;;;;;;;12.67;99.65;95259.41;5050287;28;20051;-75
2022/08/14 00:30:12;;;;;;;11.48;6.68;;;;;;;12.68;99.88;95266.28;5047420;28;20115;-74
2022/08/14 00:32:38;;;;;;;12.98;6.82;;;;;;;12.74;99.71;95259.84;5050931;28;20044;-75
2022/08/14 00:35:06;;;;;;;10.88;6.18;;;;;;;12.80;99.54;95264.75;5049907;28;20048;-74
2022/08/14 00:37:32;;;;;;;9.52;6.68;;;;;;;12.72;99.27;95257.47;5048152;28;20045;-75
2022/08/14 00:39:59;;;;;;;11.25;6.90;;;;;;;12.77;99.69;95253.97;5048512;28;20045;-74
2022/08/14 00:42:25;;;;;;;12.02;6.40;;;;;;;12.71;99.48;95250.63;5045778;28;20041;-74
2022/08/14 00:44:51;;;;;;;11.23;6.90;;;;;;;12.69;99.31;95257.28;5050690;28;20041;-74
2022/08/14 00:47:17;;;;;;;14.57;7.30;;;;;;;12.62;99.33;95250.50;5049533;28;20045;-74
2022/08/14 00:49:44;;;;;;;12.73;7.05;;;;;;;12.53;100.00;95249.59;5047459;28;20802;-74
2022/08/14 00:52:14;;;;;;;14.23;6.90;;;;;;;12.60;100.00;95255.31;5048143;28;20083;-74
2022/08/14 00:54:41;;;;;;;10.18;6.68;;;;;;;12.52;100.00;95248.03;5049192;28;20048;-75
2022/08/14 00:57:07;;;;;;;13.43;6.72;;;;;;;12.53;100.00;95249.59;5045341;28;20053;-75
2022/08/14 00:59:34;;;;;;;11.85;6.78;;;;;;;12.47;100.00;95245.47;5064677;28;20443;-75
2022/08/14 01:02:01;;;;;;;12.52;7.28;;;;;;;12.37;100.00;95245.63;5051955;28;20047;-75
2022/08/14 01:04:32;;;;;;;16.00;6.88;;;;;;;12.33;100.00;95242.00;5050344;28;20047;-75
2022/08/14 01:06:59;;;;;;;12.35;7.57;;;;;;;12.32;100.00;95237.78;5048503;28;20037;-75
2022/08/14 01:09:27;;;;;;;15.68;7.65;;;;;;;12.25;100.00;95233.63;5049668;28;20643;-75
2022/08/14 01:11:53;;;;;;;12.45;7.05;;;;;;;12.21;100.00;95229.22;5048964;28;20037;-75
2022/08/14 01:14:19;;;;;;;13.77;7.40;;;;;;;12.27;100.00;95228.09;5049995;28;20572;-75
2022/08/14 01:16:46;;;;;;;13.98;8.25;;;;;;;12.25;100.00;95236.28;5047156;28;20051;-75
2022/08/14 01:21:56;;;;;;;;;;;;;;;12.16;100.00;95230.09;5041636;28;20044;-75
2022/08/14 01:24:22;;;;;;;16.50;7.22;;;;;;;12.15;100.00;95225.88;5049038;28;19925;-75
2022/08/14 01:26:48;;;;;;;14.57;7.95;;;;;;;12.09;100.00;95221.75;5050060;28;20045;-75
2022/08/14 01:29:14;;;;;;;16.40;7.15;;;;;;;12.06;100.00;95230.22;5048776;28;20416;-75
2022/08/14 01:31:48;;;;;;;12.75;7.13;;;;;;;12.04;100.00;95222.63;5049848;28;20041;-75
2022/08/14 01:34:14;;;;;;;16.15;7.72;;;;;;;12.00;100.00;95215.56;5048029;28;20045;-75
2022/08/14 01:36:40;;;;;;;15.07;8.35;;;;;;;11.94;100.00;95223.53;5048451;28;20029;-75
2022/08/14 01:39:16;;;;;;;12.23;7.35;;;;;;;11.95;100.00;95214.56;5043903;28;20482;-75
2022/08/14 01:41:55;;;;;;;16.77;8.05;;;;;;;11.93;100.00;95205.31;5046910;28;20041;-75
2022/08/14 01:44:25;;;;;;;12.05;7.22;;;;;;;11.84;100.00;95207.00;5045760;28;20128;-75
2022/08/14 01:46:53;;;;;;;13.88;7.30;;;;;;;11.90;100.00;95200.63;5049142;28;20037;-75
2022/08/14 01:49:19;;;;;;;13.75;7.43;;;;;;;11.90;100.00;95192.72;5049328;28;20048;-75
2022/08/14 01:51:46;;;;;;;12.30;7.53;;;;;;;11.88;100.00;95198.28;5047166;28;20044;-75
2022/08/14 01:54:19;;;;;;;19.83;7.72;;;;;;;11.84;100.00;95181.47;5049253;28;20044;-75
2022/08/14 01:56:44;;;;;;;13.07;7.47;;;;;;;11.83;100.00;95179.88;5049392;28;20502;-75
2022/08/14 01:59:16;;;;;;;14.95;8.50;;;;;;;11.80;100.00;95180.44;5047591;28;20051;-74
2022/08/14 02:01:42;;;;;;;13.10;7.60;;;;;;;11.72;100.00;95173.19;5049480;28;20087;-75
2022/08/14 02:04:08;;;;;;;11.52;7.25;;;;;;;11.71;100.00;95166.31;5049129;28;20137;-75
2022/08/14 02:06:36;;;;;;;15.07;7.90;;;;;;;11.64;100.00;95171.16;5049587;28;20468;-75
2022/08/14 02:09:04;;;;;;;12.98;8.13;;;;;;;11.52;100.00;95161.84;5043355;28;20061;-75
2022/08/14 02:11:30;;;;;;;14.88;8.30;;;;;;;11.55;100.00;95163.91;5043825;28;20495;-75
2022/08/14 02:14:00;;;;;;;13.57;7.82;;;;;;;11.58;100.00;95157.31;5046674;28;20044;-74
2022/08/14 02:16:31;;;;;;;12.55;7.75;;;;;;;11.39;100.00;95159.88;5048901;28;20033;-74
2022/08/14 02:19:00;;;;;;;13.50;8.00;;;;;;;11.41;100.00;95158.53;5048377;28;20049;-74
2022/08/14 02:21:27;;;;;;;14.73;8.38;;;;;;;11.41;100.00;95152.50;5045799;28;20461;-74
2022/08/14 02:23:54;;;;;;;14.50;7.80;;;;;;;11.43;100.00;95161.69;5048193;28;20041;-74
2022/08/14 02:26:25;;;;;;;12.93;8.23;;;;;;;11.46;100.00;95159.56;5047241;28;20045;-75
2022/08/14 02:28:54;;;;;;;12.65;8.20;;;;;;;11.47;100.00;95153.22;5046201;28;20041;-74
2022/08/14 02:31:19;;;;;;;14.35;8.60;;;;;;;11.45;100.00;95148.25;5048161;28;20067;-74
2022/08/14 02:33:46;;;;;;;12.95;8.15;;;;;;;11.39;100.00;95151.97;5048285;28;20033;-74
2022/08/14 02:36:13;;;;;;;13.93;8.38;;;;;;;11.30;100.00;95145.78;5047460;28;20044;-74
2022/08/14 02:38:39;;;;;;;14.73;8.52;;;;;;;11.33;100.00;95145.22;5047181;28;20454;-75
2022/08/14 02:41:08;;;;;;;11.95;7.68;;;;;;;11.38;100.00;95142.53;5041529;28;20076;-74
2022/08/14 02:43:34;;;;;;;12.95;8.25;;;;;;;11.37;100.00;95143.59;5045808;28;20033;-74
2022/08/14 02:46:02;;;;;;;13.82;8.20;;;;;;;11.37;100.00;95138.31;5048378;28;20041;-75
2022/08/14 02:48:30;;;;;;;11.55;8.07;;;;;;;11.34;100.00;95141.53;5043796;28;20044;-75
2022/08/14 02:50:57;;;;;;;14.82;8.18;;;;;;;11.28;100.00;95138.16;5041171;28;20449;-75
2022/08/14 02:53:22;;;;;;;15.95;8.15;;;;;;;11.16;100.00;95135.94;5048924;28;20048;-75
2022/08/14 02:55:48;;;;;;;12.55;8.00;;;;;;;11.09;100.00;95119.69;5052371;28;20040;-75
2022/08/14 02:58:14;;;;;;;12.65;7.80;;;;;;;11.05;100.00;95131.88;5040931;28;20046;-75
2022/08/14 03:00:40;;;;;;;16.58;8.93;;;;;;;11.05;100.00;95129.22;5043945;28;20049;-75
2022/08/14 03:03:05;;;;;;;12.40;8.13;;;;;;;11.08;100.00;95131.28;5048097;28;20048;-75
2022/08/14 03:05:31;;;;;;;15.05;8.65;;;;;;;11.01;100.00;95122.97;5047968;28;20064;-75
2022/08/14 03:08:30;;;;;;;16.17;8.52;;;;;;;10.96;100.00;95120.38;5046591;28;20568;-74
2022/08/14 03:10:57;;;;;;;14.50;8.48;;;;;;;10.96;100.00;95126.44;5045479;28;20091;-74
2022/08/14 03:13:23;;;;;;;15.50;8.77;;;;;;;11.02;100.00;95129.78;5046318;28;20510;-74
2022/08/14 03:15:52;;;;;;;14.45;8.07;;;;;;;11.07;100.00;95130.50;5048021;28;20067;-74
2022/08/14 03:18:21;;;;;;;16.88;8.90;;;;;;;11.01;100.00;95128.22;5046615;28;20049;-74
2022/08/14 03:20:47;;;;;;;14.25;8.77;;;;;;;11.04;100.00;95122.38;5046794;28;20056;-74
2022/08/14 03:23:16;;;;;;;17.77;9.73;;;;;;;11.02;100.00;95124.50;5048184;28;20506;-74
2022/08/14 03:25:41;;;;;;;13.40;8.32;;;;;;;10.99;100.00;95125.06;5046300;28;20044;-74
2022/08/14 03:28:09;;;;;;;14.60;8.70;;;;;;;11.03;100.00;95120.81;5047838;28;20045;-74
2022/08/14 03:30:36;;;;;;;16.27;8.70;;;;;;;10.91;100.00;95114.09;5045492;28;20060;-74
2022/08/14 03:33:01;;;;;;;19.25;9.35;;;;;;;10.82;100.00;95107.88;5046801;28;20045;-74
2022/08/14 03:35:28;;;;;;;13.95;9.00;;;;;;;10.78;100.00;95106.88;5047658;28;20087;-74
2022/08/14 03:37:54;;;;;;;16.58;9.43;;;;;;;10.71;100.00;95088.78;5044763;28;20144;-74
2022/08/14 03:40:21;;;;;;;16.73;9.73;;;;;;;10.84;100.00;95092.59;5047320;28;20116;-74
2022/08/14 03:42:47;;;;;;;14.52;8.90;;;;;;;10.86;100.00;95100.19;5046032;28;20445;-74
2022/08/14 03:45:14;;;;;;;16.05;8.63;;;;;;;10.79;100.00;95090.03;5047893;28;20425;-74
2022/08/14 03:47:40;;;;;;;15.73;9.45;;;;;;;10.88;100.00;95092.81;5046256;28;20052;-75
2022/08/14 03:50:09;;;;;;;16.15;9.02;;;;;;;10.81;100.00;95093.16;5043263;28;20041;-75
2022/08/14 03:52:38;;;;;;;16.02;9.20;;;;;;;10.71;100.00;95098.53;5047730;28;22200;-74
2022/08/14 03:55:07;;;;;;;19.55;9.50;;;;;;;10.68;100.00;95104.34;5047375;28;20041;-74
2022/08/14 03:57:34;;;;;;;16.17;9.07;;;;;;;10.73;100.00;95104.28;5046210;28;20037;-74
2022/08/14 04:00:05;;;;;;;15.45;8.93;;;;;;;10.67;100.00;95094.88;5043132;28;20053;-74
2022/08/14 04:02:31;;;;;;;20.30;8.68;;;;;;;10.66;100.00;95090.69;5046331;28;20613;-74
2022/08/14 04:04:56;;;;;;;15.93;9.30;;;;;;;10.67;100.00;95081.72;5046988;28;20071;-74
2022/08/14 04:07:22;;;;;;;17.50;8.68;;;;;;;10.73;100.00;95080.59;5046482;28;20467;-74
2022/08/14 04:09:48;;;;;;;15.20;9.27;;;;;;;10.69;100.00;95079.63;5046127;28;20530;-74
2022/08/14 04:12:13;;;;;;;13.52;8.80;;;;;;;10.77;100.00;95086.88;5046105;28;20041;-75
2022/08/14 04:14:39;;;;;;;15.88;9.27;;;;;;;10.75;100.00;95083.75;5045509;28;20037;-75
2022/08/14 04:17:04;;;;;;;16.55;9.27;;;;;;;10.67;100.00;95087.00;5051751;28;20049;-75
2022/08/14 04:19:30;;;;;;;16.33;9.45;;;;;;;10.65;100.00;95089.13;5051702;28;20178;-75
2022/08/14 04:21:55;;;;;;;20.50;10.10;;;;;;;10.77;100.00;95094.78;5048602;28;20037;-74
2022/08/14 04:24:20;;;;;;;15.25;9.05;;;;;;;10.71;100.00;95093.28;5051171;28;20045;-74
2022/08/14 04:26:46;;;;;;;14.73;8.65;;;;;;;10.66;100.00;95095.94;5050934;28;20072;-74
2022/08/14 04:29:12;;;;;;;16.38;8.43;;;;;;;10.66;100.00;95095.94;5047343;28;20044;-74
2022/08/14 04:31:38;;;;;;;17.48;9.20;;;;;;;10.60;100.00;95086.53;5051288;28;20041;-75
2022/08/14 04:34:04;;;;;;;17.48;9.38;;;;;;;10.61;100.00;95088.88;5051004;28;20055;-74
2022/08/14 04:36:31;;;;;;;17.80;9.90;;;;;;;10.55;100.00;95085.53;5050398;28;20063;-75
2022/08/14 04:44:25;;;;;;;16.88;9.80;;;;;;;10.75;100.00;95057.44;5049426;28;20019;-75
2022/08/14 04:49:35;;;;;;;17.23;9.77;;;;;;;10.74;100.00;95066.38;5050226;28;20049;-75
2022/08/14 04:52:03;;;;;;;15.57;9.32;;;;;;;10.82;100.00;95060.50;5046515;28;20072;-75
2022/08/14 04:54:29;;;;;;;16.90;10.13;;;;;;;10.85;100.00;95061.81;5048864;28;20029;-75
2022/08/14 04:56:55;;;;;;;15.57;9.45;;;;;;;10.91;100.00;95061.44;5050228;28;20041;-74
2022/08/14 04:59:21;;;;;;;20.40;9.77;;;;;;;11.00;100.00;95066.09;5047289;28;20037;-74
2022/08/14 05:01:47;;;;;;;22.42;10.18;;;;;;;11.03;100.00;95065.50;5044862;28;20075;-74
2022/08/14 05:04:12;;;;;;;17.75;9.57;;;;;;;11.08;100.00;95055.72;5050065;28;20087;-75
2022/08/14 05:06:38;;;;;;;16.92;9.85;;;;;;;11.16;100.00;95051.69;5048953;28;20048;-75
2022/08/14 05:09:05;;;;;;;19.02;9.57;;;;;;;11.21;100.00;95043.69;5042749;28;20126;-75
2022/08/14 05:11:34;;;;;;;16.88;9.23;;;;;;;11.34;100.00;95044.06;5046241;28;20098;-75
2022/08/14 05:14:01;;;;;;;16.13;9.27;;;;;;;11.39;100.00;95049.25;5044948;28;20526;-74
2022/08/14 05:16:29;;;;;;;16.63;9.75;;;;;;;11.52;100.00;95043.28;5050217;28;20041;-75
2022/08/14 05:18:55;;;;;;;15.68;9.52;;;;;;;11.72;100.00;95041.38;5048396;28;20167;-75
2022/08/14 05:21:21;;;;;;;15.10;9.48;;;;;;;11.94;100.00;95038.16;5047566;28;20461;-75
2022/08/14 05:23:47;;;;;;;14.45;9.10;;;;;;;12.02;100.00;95044.63;5041325;28;20041;-75
2022/08/14 05:26:16;;;;;;;17.27;9.65;;;;;;;12.04;100.00;95037.19;5049050;28;20064;-75
2022/08/14 05:28:44;;;;;;;15.23;9.15;;;;;;;12.20;100.00;95041.16;5046770;28;20059;-74
2022/08/14 05:31:12;;;;;;;17.05;9.45;;;;;;;12.34;100.00;95035.09;5050094;28;20064;-74
2022/08/14 05:33:39;;;;;;;19.58;9.45;;;;;;;12.50;100.00;95049.59;5049862;28;20045;-75
2022/08/14 05:36:08;;;;;;;17.05;8.68;;;;;;;12.63;100.00;95054.09;5043433;28;20079;-74
2022/08/14 05:38:36;;;;;;;17.00;8.95;;;;;;;12.79;100.00;95046.66;5047899;28;20045;-74
2022/08/14 05:41:17;;;;;;;13.63;8.45;;;;;;;12.80;100.00;95036.88;5048491;28;20179;-74
2022/08/14 05:43:46;;;;;;;15.05;8.23;;;;;;;12.78;100.00;95044.31;5049831;28;20061;-75
2022/08/14 05:46:14;;;;;;;12.55;7.90;;;;;;;12.79;100.00;95035.31;5049033;28;20502;-75
2022/08/14 05:48:40;;;;;;;13.88;7.78;;;;;;;12.83;100.00;95041.59;5049061;28;20541;-75
2022/08/14 05:51:05;;;;;;;10.73;6.90;;;;;;;12.87;100.00;95047.81;5046950;28;20056;-75
2022/08/14 05:53:31;;;;;;;11.65;6.88;;;;;;;12.91;100.00;95048.78;5047530;28;20044;-74
2022/08/14 05:55:58;;;;;;;9.95;6.15;;;;;;;12.93;100.00;95046.66;5049094;28;20135;-75
2022/08/14 05:58:24;;;;;;;10.45;6.43;;;;;;;13.29;100.00;95053.84;5047594;28;20052;-75
2022/08/14 06:00:50;;;;;;;8.68;5.68;;;;;;;13.70;100.00;95062.75;5044974;28;20067;-74
2022/08/14 06:03:19;;;;;;;7.95;5.38;;;;;;;14.04;100.00;95051.63;5048624;28;20414;-75
2022/08/14 06:05:52;;;;;;;8.45;5.30;;;;;;;14.20;100.00;95053.88;5049560;28;20037;-75
2022/08/14 06:08:25;;;;;;;8.30;5.10;;;;;;;14.36;100.00;95047.09;5048409;28;20037;-74
2022/08/14 06:10:53;;;;;;;7.37;5.10;;;;;;;14.62;98.13;95051.78;5047036;28;20510;-75
2022/08/14 06:13:20;;;;;;;8.82;4.50;;;;;;;14.82;97.81;95054.97;5043169;28;20290;-75
2022/08/14 06:15:46;;;;;;;6.60;4.68;;;;;;;14.81;98.09;95050.75;5048842;28;20033;-75
2022/08/14 06:18:14;;;;;;;6.68;4.00;;;;;;;14.75;99.86;95047.44;5049156;28;20037;-75
2022/08/14 06:20:40;;;;;;;7.20;4.25;;;;;;;14.72;100.00;95048.88;5037843;28;20120;-75
2022/08/14 06:23:06;;;;;;;5.88;3.92;;;;;;;14.82;98.93;95054.97;5049264;28;20737;-75
2022/08/14 06:25:31;;;;;;;5.22;3.78;;;;;;;15.10;97.11;95052.06;5048735;28;20122;-75
2022/08/14 06:27:57;;;;;;;4.93;3.50;;;;;;;15.01;100.00;95055.50;5047503;28;20056;-75
2022/08/14 06:30:26;;;;;;;7.82;4.10;;;;;;;15.33;94.20;95050.88;5048838;28;20556;-75
2022/08/14 06:32:52;;;;;;;7.68;4.22;;;;;;;15.56;95.36;95053.38;5049399;28;20036;-75
2022/08/14 06:35:19;;;;;;;7.25;3.85;;;;;;;15.51;94.41;95056.19;5046530;28;20033;-74
2022/08/14 06:37:44;;;;;;;5.80;3.85;;;;;;;15.44;96.74;95061.94;5043887;28;20056;-74
2022/08/14 06:40:12;;;;;;;5.43;4.20;;;;;;;15.36;97.64;95060.84;5048096;28;20041;-74
2022/08/14 06:42:39;;;;;;;5.78;4.00;;;;;;;15.73;91.19;95063.19;5046197;28;20119;-74
2022/08/14 06:45:06;;;;;;;5.50;3.92;;;;;;;15.90;94.30;95046.50;5047587;28;20662;-74
2022/08/14 06:47:35;;;;;;;6.07;4.30;;;;;;;15.94;93.57;95042.91;5047450;28;20037;-74
2022/08/14 06:50:06;;;;;;;7.20;4.35;;;;;;;16.01;91.10;95039.78;5045601;28;20047;-75
2022/08/14 06:52:31;;;;;;;6.40;4.63;;;;;;;15.94;94.02;95042.91;5061743;28;20036;-75
2022/08/14 06:54:57;;;;;;;8.20;4.43;;;;;;;16.16;89.48;95043.03;5048935;28;20458;-75
2022/08/14 06:57:23;;;;;;;6.60;4.13;;;;;;;16.50;87.16;95036.06;5047157;28;20051;-74
2022/08/14 06:59:49;;;;;;;7.25;4.68;;;;;;;16.40;89.12;95043.28;5048177;28;20039;-74
2022/08/14 07:07:43;;;;;;;19.10;7.63;;;;;;;16.88;88.84;95019.34;5037627;28;20510;-74
2022/08/14 07:10:09;;;;;;;7.15;5.20;;;;;;;16.69;88.32;95017.06;5046774;28;20052;-74
2022/08/14 07:21:05;;;;;;;9.27;6.10;;;;;;;17.30;87.59;94998.91;5121933;27;20395;-78
2022/08/14 07:23:31;;;;;;;8.98;5.88;;;;;;;17.44;83.02;95006.63;5117584;27;20042;-75
2022/08/14 07:26:00;;;;;;;9.05;5.90;;;;;;;17.39;85.80;94990.84;5109987;27;20055;-76
2022/08/14 07:28:34;;;;;;;8.50;6.25;;;;;;;17.26;86.21;95002.53;5108282;28;20040;-75
2022/08/14 07:31:04;;;;;;;7.55;5.95;;;;;;;17.23;83.82;94997.88;5097308;28;20040;-73
2022/08/14 07:33:38;;;;;;;9.57;5.82;;;;;;;17.29;81.93;94985.94;5117808;27;20035;-74
2022/08/14 07:36:08;;;;;;;9.23;6.10;;;;;;;17.36;84.62;94986.19;5108269;28;20497;-73
2022/08/14 07:38:34;;;;;;;18.90;8.25;;;;;;;17.67;82.44;94980.44;5103218;28;20118;-74
2022/08/14 07:41:01;;;;;;;9.90;6.28;;;;;;;17.67;83.72;94979.69;5109880;28;20036;-76
2022/08/14 07:43:26;;;;;;;11.57;6.75;;;;;;;17.55;84.82;94971.63;5115412;28;20047;-76
2022/08/14 07:45:52;;;;;;;9.23;6.00;;;;;;;17.97;77.97;94971.56;5114282;27;20043;-76
2022/08/14 07:48:18;;;;;;;12.38;6.20;;;;;;;18.34;76.18;94969.72;5105661;28;20036;-73
2022/08/14 07:50:45;;;;;;;8.35;5.93;;;;;;;18.41;76.14;94974.53;5116138;28;20130;-76
2022/08/14 07:53:13;;;;;;;8.43;5.70;;;;;;;18.82;71.66;94972.75;5117890;27;20039;-76
2022/08/14 07:55:40;;;;;;;7.85;5.70;;;;;;;18.80;75.12;94958.97;5112116;28;20096;-76
2022/08/14 07:58:06;;;;;;;9.00;5.53;;;;;;;19.33;71.52;94958.22;5104840;28;20043;-75
2022/08/14 08:00:32;;;;;;;7.80;6.05;;;;;;;19.43;70.52;94952.41;5103684;28;20032;-75
2022/08/14 08:02:58;;;;;;;8.27;6.05;;;;;;;19.54;70.74;94958.81;5108939;28;20048;-75
2022/08/14 08:05:25;;;;;;;9.32;6.00;;;;;;;19.85;68.29;94956.56;5114201;28;20148;-76
2022/08/14 08:07:51;;;;;;;7.75;5.63;;;;;;;19.81;66.05;94956.50;5108078;27;20055;-77
2022/08/14 08:10:33;;;;;;;10.27;6.15;;;;;;;19.99;66.03;94958.84;5107343;28;20444;-81
2022/08/14 08:13:09;;;;;;;7.93;6.15;;;;;;;20.38;63.87;94945.66;5110760;28;20044;-76
2022/08/14 08:15:37;;;;;;;7.93;5.80;;;;;;;20.87;60.15;94950.59;5107428;28;20054;-75
2022/08/14 08:18:05;;;;;;;7.03;5.53;;;;;;;21.36;59.25;94943.22;5105123;28;20058;-77
2022/08/14 08:20:36;;;;;;;7.65;5.88;;;;;;;21.06;58.67;94951.78;5100853;28;20031;-76
2022/08/14 08:23:05;;;;;;;6.97;5.53;;;;;;;21.20;57.94;94953.97;5108286;28;20710;-79
2022/08/14 08:25:33;;;;;;;7.30;5.43;;;;;;;21.24;58.69;94952.91;5113017;28;20051;-77
2022/08/14 08:27:58;;;;;;;6.75;5.45;;;;;;;21.37;57.14;94950.13;5110632;28;20217;-78
2022/08/14 08:30:24;;;;;;;7.88;5.57;;;;;;;21.46;57.30;94948.00;5111019;27;20134;-82
2022/08/14 08:32:52;;;;;;;6.82;4.63;;;;;;;21.93;55.04;94948.88;5100974;28;20405;-80
2022/08/14 08:35:21;;;;;;;9.07;5.70;;;;;;;21.98;55.25;94949.38;5093271;28;20092;-80
2022/08/14 08:37:47;;;;;;;6.88;5.28;;;;;;;21.65;57.04;94943.78;5093383;28;20051;-81
2022/08/14 08:40:29;;;;;;;6.38;5.43;;;;;;;21.67;57.58;94946.91;5096572;28;20497;-77
2022/08/14 08:42:54;;;;;;;10.45;5.47;;;;;;;21.93;54.66;94949.66;5102120;28;20055;-74
2022/08/14 08:45:21;;;;;;;6.28;4.95;;;;;;;22.02;54.39;94951.34;5101031;28;20087;-73
2022/08/14 08:47:47;;;;;;;9.43;5.57;;;;;;;22.11;54.49;94954.53;5102521;28;20032;-74
2022/08/14 08:50:28;;;;;;;7.53;5.43;;;;;;;22.08;53.82;94950.69;5091668;28;20067;-75
2022/08/14 08:52:57;;;;;;;11.90;5.70;;;;;;;21.85;54.17;94953.34;5091275;28;20044;-75
2022/08/14 08:55:32;;;;;;;7.70;5.63;;;;;;;21.92;55.04;94947.34;5099195;28;20395;-74
2022/08/14 08:58:03;;;;;;;7.82;5.35;;;;;;;22.64;51.47;94943.16;5090582;28;20047;-75
2022/08/14 09:00:32;;;;;;;7.00;4.97;;;;;;;22.86;51.62;94938.88;5100651;28;20044;-75
2022/08/14 09:03:08;;;;;;;7.05;5.20;;;;;;;22.66;52.89;94944.34;5091508;28;20146;-74
2022/08/14 09:05:36;;;;;;;7.57;4.95;;;;;;;22.54;52.12;94947.25;5091938;28;20040;-76
2022/08/14 09:08:20;;;;;;;15.50;5.57;;;;;;;22.36;52.34;94938.16;5097187;28;20438;-75
2022/08/14 09:10:46;;;;;;;6.82;5.13;;;;;;;22.62;52.81;94940.84;5090821;28;20043;-77
2022/08/14 09:13:14;;;;;;;6.07;4.75;;;;;;;22.82;53.41;94943.41;5090650;28;20462;-75
2022/08/14 09:15:42;;;;;;;5.95;4.80;;;;;;;23.02;51.78;94936.78;5088888;28;20040;-75
2022/08/14 09:18:08;;;;;;;5.30;4.80;;;;;;;22.80;51.56;94940.31;5093496;28;20036;-75
2022/08/14 09:20:37;;;;;;;8.60;5.00;;;;;;;23.00;50.85;94933.72;5088660;28;20039;-75
2022/08/14 09:23:04;;;;;;;7.68;5.10;;;;;;;22.77;51.75;94919.56;5087896;28;20051;-75
2022/08/14 09:25:30;;;;;;;6.22;4.93;;;;;;;23.11;51.22;94917.00;5091047;28;20044;-75
2022/08/14 09:27:55;;;;;;;5.90;4.78;;;;;;;23.29;50.71;94933.34;5089774;28;20040;-75
2022/08/14 09:30:21;;;;;;;6.80;4.78;;;;;;;23.23;52.50;94924.81;5089075;28;20054;-75
2022/08/14 09:33:06;;;;;;;7.90;4.97;;;;;;;23.73;49.15;94921.91;5086316;28;20048;-75
2022/08/14 09:35:56;;;;;;;6.82;4.68;;;;;;;23.69;49.42;94935.31;5090865;28;20111;-75
2022/08/14 09:38:43;;;;;;;8.35;4.82;;;;;;;23.55;49.15;94929.78;5090552;28;20429;-75
2022/08/14 09:41:41;;;;;;;5.85;5.03;;;;;;;23.65;48.99;94929.13;5080945;28;20497;-75
2022/08/14 09:44:13;;;;;;;8.77;5.18;;;;;;;24.00;48.78;94925.25;5077749;28;20048;-75
2022/08/14 09:46:39;;;;;;;6.88;4.90;;;;;;;23.92;47.57;94921.00;5090570;28;20075;-75
2022/08/14 09:49:07;;;;;;;6.25;4.40;;;;;;;23.80;49.98;94923.91;5088981;28;20064;-75
2022/08/14 09:51:40;;;;;;;5.60;4.72;;;;;;;23.86;48.13;94922.41;5087941;28;20489;-75
2022/08/14 09:54:11;;;;;;;6.83;4.77;;;;;;;23.91;47.81;94924.81;5090073;28;20402;-75
2022/08/14 09:56:48;;;;;;;7.00;4.60;;;;;;;24.03;46.72;94931.81;5090453;28;20374;-76
2022/08/14 09:59:21;;;;;;;5.32;4.50;;;;;;;24.10;46.74;94920.38;5088895;28;20047;-75
2022/08/14 10:01:48;;;;;;;7.65;4.50;;;;;;;24.14;45.58;94921.19;5090411;28;20093;-75
2022/08/14 10:04:19;;;;;;;5.68;4.75;;;;;;;24.70;43.90;94920.06;5087907;28;20059;-75
2022/08/14 10:06:45;;;;;;;6.18;4.55;;;;;;;24.82;45.96;94910.16;5090078;28;20538;-75
2022/08/14 10:09:12;;;;;;;5.70;4.35;;;;;;;24.93;45.06;94910.22;5089638;28;20051;-75
2022/08/14 10:11:39;;;;;;;5.60;4.50;;;;;;;25.28;42.22;94904.19;5084555;28;20048;-76
2022/08/14 10:14:17;;;;;;;7.97;4.60;;;;;;;25.29;43.14;94894.97;5088820;28;20078;-75
2022/08/14 10:16:46;;;;;;;8.68;4.90;;;;;;;25.28;45.01;94898.06;5090190;28;20044;-75
2022/08/14 10:19:14;;;;;;;5.88;4.13;;;;;;;25.46;43.29;94892.75;5089817;28;20064;-75
2022/08/14 10:21:42;;;;;;;5.25;4.32;;;;;;;25.83;41.21;94889.78;5081454;28;20040;-75
2022/08/14 10:24:22;;;;;;;4.40;3.90;;;;;;;25.99;41.72;94889.41;5088676;28;20044;-76
2022/08/14 10:26:56;;;;;;;5.80;4.50;;;;;;;26.14;41.26;94886.72;5089619;28;20044;-76
2022/08/14 10:29:31;;;;;;;5.78;4.10;;;;;;;26.32;41.35;94890.19;5089600;28;20097;-76
2022/08/14 10:32:00;;;;;;;6.55;4.20;;;;;;;26.16;39.16;94884.41;5083938;28;20040;-77
2022/08/14 10:34:34;;;;;;;4.90;3.97;;;;;;;26.74;39.01;94891.31;5089591;28;20047;-76
2022/08/14 10:37:09;;;;;;;5.40;4.03;;;;;;;26.56;38.77;94885.16;5089834;28;20456;-76
2022/08/14 10:39:37;;;;;;;5.60;4.18;;;;;;;26.79;38.68;94874.72;5088768;28;20521;-76
2022/08/14 10:42:09;;;;;;;4.95;4.05;;;;;;;26.97;37.65;94860.41;5084099;28;20044;-76
2022/08/14 10:44:41;;;;;;;5.53;3.97;;;;;;;27.19;38.64;94871.13;5088339;28;20040;-76
2022/08/14 10:47:09;;;;;;;5.53;4.13;;;;;;;28.06;35.62;94877.59;5089700;28;20040;-77
2022/08/14 10:49:48;;;;;;;6.63;3.72;;;;;;;28.38;33.71;94865.75;5089257;28;20149;-77
2022/08/14 10:52:31;;;;;;;4.93;3.60;;;;;;;28.52;33.07;94860.19;5082687;28;20044;-76
2022/08/14 10:55:15;;;;;;;10.88;3.95;;;;;;;28.63;34.75;94854.72;5087918;28;20093;-76
2022/08/14 10:57:49;;;;;;;4.80;3.70;;;;;;;29.62;32.83;94849.66;5089298;28;20036;-77
2022/08/14 11:00:18;;;;;;;4.32;3.63;;;;;;;29.11;31.71;94839.47;5086170;28;20117;-74
2022/08/14 11:02:44;;;;;;;4.63;3.50;;;;;;;29.06;32.65;94842.63;5089708;28;20048;-75
2022/08/14 11:05:17;;;;;;;6.07;3.80;;;;;;;28.81;32.41;94827.44;5089119;28;20048;-75
2022/08/14 11:07:55;;;;;;;7.03;3.80;;;;;;;29.26;31.73;94831.19;5088259;28;20040;-75
2022/08/14 11:10:24;;;;;;;5.43;3.40;;;;;;;30.14;27.98;94830.31;5076101;28;20043;-75
2022/08/14 11:12:54;;;;;;;4.00;3.20;;;;;;;30.75;26.31;94833.91;5084293;28;20048;-76
2022/08/14 11:15:27;;;;;;;5.75;4.00;;;;;;;30.56;28.92;94830.75;5088908;28;20070;-75
2022/08/14 11:17:55;;;;;;;5.30;4.05;;;;;;;31.26;28.41;94823.59;5087740;28;20043;-75
2022/08/14 11:20:23;;;;;;;7.07;3.65;;;;;;;31.12;26.52;94813.03;5088766;28;20440;-75
2022/08/14 11:22:58;;;;;;;4.80;3.35;;;;;;;31.70;25.02;94822.66;5087329;28;20105;-75
2022/08/14 11:25:30;;;;;;;8.15;3.70;;;;;;;30.84;29.22;94815.09;5089175;28;20040;-75
2022/08/14 11:27:58;;;;;;;3.83;3.33;;;;;;;31.97;25.54;94808.81;5088839;28;20079;-75
2022/08/14 11:30:29;;;;;;;4.43;3.15;;;;;;;32.08;25.98;94797.66;5080650;28;20044;-75
2022/08/14 11:32:56;;;;;;;10.55;3.78;;;;;;;32.24;27.02;94805.81;5088986;28;20040;-76
2022/08/14 11:35:27;;;;;;;4.63;3.22;;;;;;;31.98;25.16;94798.69;5087770;28;20051;-76
2022/08/14 11:37:52;;;;;;;3.90;3.08;;;;;;;32.63;23.66;94790.41;5081991;28;20036;-76
2022/08/14 11:40:20;;;;;;;4.03;3.25;;;;;;;32.72;24.08;94789.06;5088308;28;20480;-76
2022/08/14 11:42:48;;;;;;;5.40;3.55;;;;;;;31.34;25.54;94775.25;5087837;28;20060;-76
2022/08/14 11:45:15;;;;;;;5.82;3.33;;;;;;;32.76;23.33;94774.13;5088515;28;20046;-76
2022/08/14 11:47:41;;;;;;;3.90;3.20;;;;;;;33.20;23.87;94772.88;5088914;28;20036;-76
2022/08/14 11:50:16;;;;;;;3.42;2.90;;;;;;;32.85;21.40;94776.22;5079802;28;20083;-75
2022/08/14 11:52:43;;;;;;;4.03;3.08;;;;;;;32.96;23.39;94776.66;5089251;28;20036;-76
2022/08/14 11:55:11;;;;;;;5.90;2.97;;;;;;;32.62;21.36;94774.50;5088164;28;20079;-75
2022/08/14 11:57:38;;;;;;;3.40;2.70;;;;;;;32.42;22.30;94771.91;5086839;28;20036;-75